Becker, Mississippi
Current Conditions -  °F | °C
As of 9:35 PM on Sunday 21 Dec 2014 (Local Time) from KM40 Reporting Station
Haze Haze  
Wind Chill: 46°   Ceiling: 800
Heat Index: 48°   Visibility: 5mi
Dew Point: 36°   Wind: 5mph
Humidity: 62%   Direction: 160°SSE
Pressure: 30.03"   Gusts: NA
Location:  33.93°N, 88.48°W
Report Text: KM40 220335Z AUTO 16004KT 5SM HZ OVC008 09/02 A3003 RMK AO2
Loading
Personal Weather Stations






























Interactive Weather Map New forecast layout! Learn more

10-Day Weather Forecast

Advertisements
Track Severe Weather on mobile